sensor_id;sensor_type;location;lat;lon;timestamp;temperature;humidity
34572;DHT22;20808;48.974;8.452;2022-08-01T00:01:47;20.90;1.00
34572;DHT22;20808;48.974;8.452;2022-08-01T00:04:14;21.10;1.00
34572;DHT22;20808;48.974;8.452;2022-08-01T00:06:42;21.10;1.00
34572;DHT22;20808;48.974;8.452;2022-08-01T00:09:09;21.10;1.00
34572;DHT22;20808;48.974;8.452;2022-08-01T00:11:36;21.00;1.00
34572;DHT22;20808;48.974;8.452;2022-08-01T00:14:03;21.30;1.00
34572;DHT22;20808;48.974;8.452;2022-08-01T00:16:30;21.30;1.00
34572;DHT22;20808;48.974;8.452;2022-08-01T00:18:56;21.20;1.00
34572;DHT22;20808;48.974;8.452;2022-08-01T00:21:23;21.10;1.00
34572;DHT22;20808;48.974;8.452;2022-08-01T00:23:51;21.20;1.00
34572;DHT22;20808;48.974;8.452;2022-08-01T00:26:18;21.20;1.00
34572;DHT22;20808;48.974;8.452;2022-08-01T00:28:45;21.20;1.00
34572;DHT22;20808;48.974;8.452;2022-08-01T00:31:12;21.10;1.00
34572;DHT22;20808;48.974;8.452;2022-08-01T00:33:39;21.00;1.00
34572;DHT22;20808;48.974;8.452;2022-08-01T00:36:05;21.00;1.00
34572;DHT22;20808;48.974;8.452;2022-08-01T00:38:32;20.80;1.00
34572;DHT22;20808;48.974;8.452;2022-08-01T00:41:01;20.70;1.00
34572;DHT22;20808;48.974;8.452;2022-08-01T00:43:28;20.70;1.00
34572;DHT22;20808;48.974;8.452;2022-08-01T00:45:55;20.60;1.00
34572;DHT22;20808;48.974;8.452;2022-08-01T00:48:21;20.60;1.00
34572;DHT22;20808;48.974;8.452;2022-08-01T00:50:48;20.60;1.00
34572;DHT22;20808;48.974;8.452;2022-08-01T00:53:16;20.60;1.00
34572;DHT22;20808;48.974;8.452;2022-08-01T00:55:42;20.60;1.00
34572;DHT22;20808;48.974;8.452;2022-08-01T00:58:11;20.50;1.00
34572;DHT22;20808;48.974;8.452;2022-08-01T01:00:38;20.50;1.00
34572;DHT22;20808;48.974;8.452;2022-08-01T01:03:04;20.50;1.00
34572;DHT22;20808;48.974;8.452;2022-08-01T01:05:35;20.40;1.00
34572;DHT22;20808;48.974;8.452;2022-08-01T01:08:09;20.40;1.00
34572;DHT22;20808;48.974;8.452;2022-08-01T01:10:45;20.30;1.00
34572;DHT22;20808;48.974;8.452;2022-08-01T01:13:23;20.30;1.00
34572;DHT22;20808;48.974;8.452;2022-08-01T01:15:53;20.20;1.00
34572;DHT22;20808;48.974;8.452;2022-08-01T01:18:24;20.10;1.00
34572;DHT22;20808;48.974;8.452;2022-08-01T01:21:00;20.00;1.00
34572;DHT22;20808;48.974;8.452;2022-08-01T01:23:44;20.00;1.00
34572;DHT22;20808;48.974;8.452;2022-08-01T01:26:23;20.00;1.00
34572;DHT22;20808;48.974;8.452;2022-08-01T01:29:06;20.10;1.00
34572;DHT22;20808;48.974;8.452;2022-08-01T01:31:40;20.00;1.00
34572;DHT22;20808;48.974;8.452;2022-08-01T01:34:09;19.90;1.00
34572;DHT22;20808;48.974;8.452;2022-08-01T01:36:39;19.80;1.00
34572;DHT22;20808;48.974;8.452;2022-08-01T01:39:06;19.90;1.00
34572;DHT22;20808;48.974;8.452;2022-08-01T01:41:35;20.00;1.00
34572;DHT22;20808;48.974;8.452;2022-08-01T01:44:05;20.10;1.00
34572;DHT22;20808;48.974;8.452;2022-08-01T01:46:33;20.00;1.00
34572;DHT22;20808;48.974;8.452;2022-08-01T01:49:01;20.00;1.00
34572;DHT22;20808;48.974;8.452;2022-08-01T01:51:29;20.20;1.00
34572;DHT22;20808;48.974;8.452;2022-08-01T01:53:57;20.20;1.00
34572;DHT22;20808;48.974;8.452;2022-08-01T01:56:26;20.30;1.00
34572;DHT22;20808;48.974;8.452;2022-08-01T01:58:55;20.30;1.00
34572;DHT22;20808;48.974;8.452;2022-08-01T02:01:28;20.30;1.00
34572;DHT22;20808;48.974;8.452;2022-08-01T02:03:56;20.30;1.00
34572;DHT22;20808;48.974;8.452;2022-08-01T02:06:24;20.20;1.00
34572;DHT22;20808;48.974;8.452;2022-08-01T02:08:53;20.10;1.00
34572;DHT22;20808;48.974;8.452;2022-08-01T02:11:21;20.00;1.00
34572;DHT22;20808;48.974;8.452;2022-08-01T02:13:57;19.90;1.00
34572;DHT22;20808;48.974;8.452;2022-08-01T02:16:27;19.70;1.00
34572;DHT22;20808;48.974;8.452;2022-08-01T02:18:55;19.70;1.00
34572;DHT22;20808;48.974;8.452;2022-08-01T02:21:26;19.80;1.00
34572;DHT22;20808;48.974;8.452;2022-08-01T02:23:56;19.90;1.00
34572;DHT22;20808;48.974;8.452;2022-08-01T02:26:27;19.90;1.00
34572;DHT22;20808;48.974;8.452;2022-08-01T02:28:58;19.90;1.00
34572;DHT22;20808;48.974;8.452;2022-08-01T02:31:28;19.80;1.00
34572;DHT22;20808;48.974;8.452;2022-08-01T02:33:59;19.70;1.00
34572;DHT22;20808;48.974;8.452;2022-08-01T02:36:30;19.80;1.00
34572;DHT22;20808;48.974;8.452;2022-08-01T02:38:59;19.60;1.00
34572;DHT22;20808;48.974;8.452;2022-08-01T02:41:27;19.50;1.00
34572;DHT22;20808;48.974;8.452;2022-08-01T02:43:59;19.30;1.00
34572;DHT22;20808;48.974;8.452;2022-08-01T02:46:36;19.20;1.00
34572;DHT22;20808;48.974;8.452;2022-08-01T02:49:05;19.10;1.00
34572;DHT22;20808;48.974;8.452;2022-08-01T02:51:33;19.20;1.00
34572;DHT22;20808;48.974;8.452;2022-08-01T02:54:03;19.20;1.00
34572;DHT22;20808;48.974;8.452;2022-08-01T02:56:32;19.10;1.00
34572;DHT22;20808;48.974;8.452;2022-08-01T02:59:04;19.00;17.00
34572;DHT22;20808;48.974;8.452;2022-08-01T03:01:34;19.00;91.90
34572;DHT22;20808;48.974;8.452;2022-08-01T03:04:02;19.00;99.90
34572;DHT22;20808;48.974;8.452;2022-08-01T03:06:31;18.90;99.90
34572;DHT22;20808;48.974;8.452;2022-08-01T03:08:59;18.80;99.90
34572;DHT22;20808;48.974;8.452;2022-08-01T03:11:27;18.70;99.90
34572;DHT22;20808;48.974;8.452;2022-08-01T03:13:55;18.70;99.90
34572;DHT22;20808;48.974;8.452;2022-08-01T03:16:24;18.70;99.90
34572;DHT22;20808;48.974;8.452;2022-08-01T03:18:57;18.80;99.90
34572;DHT22;20808;48.974;8.452;2022-08-01T03:21:25;18.70;99.90
34572;DHT22;20808;48.974;8.452;2022-08-01T03:23:54;18.60;1.00
34572;DHT22;20808;48.974;8.452;2022-08-01T03:26:25;18.50;1.00
34572;DHT22;20808;48.974;8.452;2022-08-01T03:28:52;18.40;1.00
34572;DHT22;20808;48.974;8.452;2022-08-01T03:31:22;18.30;1.00
34572;DHT22;20808;48.974;8.452;2022-08-01T03:33:50;18.20;1.00
34572;DHT22;20808;48.974;8.452;2022-08-01T03:36:22;18.00;99.90
34572;DHT22;20808;48.974;8.452;2022-08-01T03:38:51;17.90;1.00
34572;DHT22;20808;48.974;8.452;2022-08-01T03:41:21;17.90;99.90
34572;DHT22;20808;48.974;8.452;2022-08-01T03:43:54;17.90;1.00
34572;DHT22;20808;48.974;8.452;2022-08-01T03:46:34;18.00;1.00
34572;DHT22;20808;48.974;8.452;2022-08-01T03:49:06;18.10;1.00
34572;DHT22;20808;48.974;8.452;2022-08-01T03:51:36;18.10;1.00
34572;DHT22;20808;48.974;8.452;2022-08-01T03:54:04;18.10;1.00
34572;DHT22;20808;48.974;8.452;2022-08-01T03:56:33;18.10;1.00
34572;DHT22;20808;48.974;8.452;2022-08-01T03:59:01;18.20;1.00
34572;DHT22;20808;48.974;8.452;2022-08-01T04:01:29;18.20;1.00
34572;DHT22;20808;48.974;8.452;2022-08-01T04:03:58;18.30;99.90
34572;DHT22;20808;48.974;8.452;2022-08-01T04:06:25;18.20;1.00
34572;DHT22;20808;48.974;8.452;2022-08-01T04:08:54;18.20;1.00
34572;DHT22;20808;48.974;8.452;2022-08-01T04:11:24;18.20;1.00
34572;DHT22;20808;48.974;8.452;2022-08-01T04:13:53;18.20;1.00
34572;DHT22;20808;48.974;8.452;2022-08-01T04:16:20;18.40;1.00
34572;DHT22;20808;48.974;8.452;2022-08-01T04:18:47;18.60;99.90
34572;DHT22;20808;48.974;8.452;2022-08-01T04:21:14;18.60;24.40
34572;DHT22;20808;48.974;8.452;2022-08-01T04:23:45;18.70;1.00
34572;DHT22;20808;48.974;8.452;2022-08-01T04:26:15;18.60;88.20
34572;DHT22;20808;48.974;8.452;2022-08-01T04:28:44;18.50;99.90
34572;DHT22;20808;48.974;8.452;2022-08-01T04:31:14;18.40;99.90
34572;DHT22;20808;48.974;8.452;2022-08-01T04:33:46;18.40;99.90
34572;DHT22;20808;48.974;8.452;2022-08-01T04:36:18;18.40;99.90
34572;DHT22;20808;48.974;8.452;2022-08-01T04:38:48;18.30;1.00
34572;DHT22;20808;48.974;8.452;2022-08-01T04:41:18;18.20;1.00
34572;DHT22;20808;48.974;8.452;2022-08-01T04:43:46;18.50;1.00
34572;DHT22;20808;48.974;8.452;2022-08-01T04:46:14;18.50;1.00
34572;DHT22;20808;48.974;8.452;2022-08-01T04:48:42;18.60;99.90
34572;DHT22;20808;48.974;8.452;2022-08-01T04:51:12;18.70;99.90
34572;DHT22;20808;48.974;8.452;2022-08-01T04:53:40;18.80;99.90
34572;DHT22;20808;48.974;8.452;2022-08-01T04:56:07;18.80;19.90
34572;DHT22;20808;48.974;8.452;2022-08-01T04:58:35;18.80;99.90
34572;DHT22;20808;48.974;8.452;2022-08-01T05:01:02;18.80;99.90
34572;DHT22;20808;48.974;8.452;2022-08-01T05:03:29;18.80;99.90
34572;DHT22;20808;48.974;8.452;2022-08-01T05:05:56;18.80;99.90
34572;DHT22;20808;48.974;8.452;2022-08-01T05:08:23;18.90;99.90
34572;DHT22;20808;48.974;8.452;2022-08-01T05:10:50;18.80;99.90
34572;DHT22;20808;48.974;8.452;2022-08-01T05:13:18;18.90;99.90
34572;DHT22;20808;48.974;8.452;2022-08-01T05:15:46;19.20;1.00
34572;DHT22;20808;48.974;8.452;2022-08-01T05:18:13;19.20;1.00
34572;DHT22;20808;48.974;8.452;2022-08-01T05:20:40;19.20;1.00
34572;DHT22;20808;48.974;8.452;2022-08-01T05:23:07;19.40;1.00
34572;DHT22;20808;48.974;8.452;2022-08-01T05:25:34;19.40;1.00
34572;DHT22;20808;48.974;8.452;2022-08-01T05:28:01;19.40;1.00
34572;DHT22;20808;48.974;8.452;2022-08-01T05:30:28;19.50;1.00
34572;DHT22;20808;48.974;8.452;2022-08-01T05:32:56;19.60;1.00
34572;DHT22;20808;48.974;8.452;2022-08-01T05:35:23;19.90;1.00
34572;DHT22;20808;48.974;8.452;2022-08-01T05:37:50;20.10;99.90
34572;DHT22;20808;48.974;8.452;2022-08-01T05:40:17;20.20;99.90
34572;DHT22;20808;48.974;8.452;2022-08-01T05:42:44;20.30;99.90
34572;DHT22;20808;48.974;8.452;2022-08-01T05:45:10;20.40;99.90
34572;DHT22;20808;48.974;8.452;2022-08-01T05:47:37;20.50;99.90
34572;DHT22;20808;48.974;8.452;2022-08-01T05:50:06;20.60;99.90
34572;DHT22;20808;48.974;8.452;2022-08-01T05:52:33;20.70;99.90
34572;DHT22;20808;48.974;8.452;2022-08-01T05:55:00;20.80;99.90
34572;DHT22;20808;48.974;8.452;2022-08-01T05:57:27;20.80;99.90
34572;DHT22;20808;48.974;8.452;2022-08-01T05:59:54;21.00;74.20
34572;DHT22;20808;48.974;8.452;2022-08-01T06:02:21;21.10;54.50
34572;DHT22;20808;48.974;8.452;2022-08-01T06:04:47;21.20;28.30
34572;DHT22;20808;48.974;8.452;2022-08-01T06:07:16;21.40;13.90
34572;DHT22;20808;48.974;8.452;2022-08-01T06:09:42;21.70;1.00
34572;DHT22;20808;48.974;8.452;2022-08-01T06:12:09;22.00;1.00
34572;DHT22;20808;48.974;8.452;2022-08-01T06:14:36;22.20;1.00
34572;DHT22;20808;48.974;8.452;2022-08-01T06:17:03;22.30;1.00
34572;DHT22;20808;48.974;8.452;2022-08-01T06:19:30;22.40;1.00
34572;DHT22;20808;48.974;8.452;2022-08-01T06:21:56;22.60;1.00
34572;DHT22;20808;48.974;8.452;2022-08-01T06:24:24;22.80;1.00
34572;DHT22;20808;48.974;8.452;2022-08-01T06:26:52;22.90;1.00
34572;DHT22;20808;48.974;8.452;2022-08-01T06:29:19;23.10;1.00
34572;DHT22;20808;48.974;8.452;2022-08-01T06:31:45;23.40;1.00
34572;DHT22;20808;48.974;8.452;2022-08-01T06:34:12;23.60;1.00
34572;DHT22;20808;48.974;8.452;2022-08-01T06:36:40;23.80;1.00
34572;DHT22;20808;48.974;8.452;2022-08-01T06:39:07;24.00;1.00
34572;DHT22;20808;48.974;8.452;2022-08-01T06:41:35;24.00;1.00
34572;DHT22;20808;48.974;8.452;2022-08-01T06:44:02;24.10;1.00
34572;DHT22;20808;48.974;8.452;2022-08-01T06:46:29;24.30;1.00
34572;DHT22;20808;48.974;8.452;2022-08-01T06:48:56;24.10;1.00
34572;DHT22;20808;48.974;8.452;2022-08-01T06:51:23;24.20;1.00
34572;DHT22;20808;48.974;8.452;2022-08-01T06:53:50;24.40;1.00
34572;DHT22;20808;48.974;8.452;2022-08-01T06:56:18;24.50;1.00
34572;DHT22;20808;48.974;8.452;2022-08-01T06:58:46;24.50;1.00
34572;DHT22;20808;48.974;8.452;2022-08-01T07:01:13;24.60;1.00
34572;DHT22;20808;48.974;8.452;2022-08-01T07:03:40;24.80;1.00
34572;DHT22;20808;48.974;8.452;2022-08-01T07:06:07;25.10;1.00
34572;DHT22;20808;48.974;8.452;2022-08-01T07:08:33;25.30;1.00
34572;DHT22;20808;48.974;8.452;2022-08-01T07:11:00;25.80;1.00
34572;DHT22;20808;48.974;8.452;2022-08-01T07:13:28;25.90;1.00
34572;DHT22;20808;48.974;8.452;2022-08-01T07:15:57;26.10;1.00
34572;DHT22;20808;48.974;8.452;2022-08-01T07:18:24;26.50;1.00
34572;DHT22;20808;48.974;8.452;2022-08-01T07:20:51;25.90;1.00
34572;DHT22;20808;48.974;8.452;2022-08-01T07:23:18;25.80;1.00
34572;DHT22;20808;48.974;8.452;2022-08-01T07:25:45;25.80;1.00
34572;DHT22;20808;48.974;8.452;2022-08-01T07:28:14;25.80;1.00
34572;DHT22;20808;48.974;8.452;2022-08-01T07:30:41;25.90;1.00
34572;DHT22;20808;48.974;8.452;2022-08-01T07:33:11;26.20;1.00
34572;DHT22;20808;48.974;8.452;2022-08-01T07:35:38;26.30;1.00
34572;DHT22;20808;48.974;8.452;2022-08-01T07:38:05;26.40;1.00
34572;DHT22;20808;48.974;8.452;2022-08-01T07:40:32;26.10;1.00
34572;DHT22;20808;48.974;8.452;2022-08-01T07:42:59;25.80;1.00
34572;DHT22;20808;48.974;8.452;2022-08-01T07:45:26;25.70;1.00
34572;DHT22;20808;48.974;8.452;2022-08-01T07:47:53;25.80;1.00
34572;DHT22;20808;48.974;8.452;2022-08-01T07:50:21;26.40;1.00
34572;DHT22;20808;48.974;8.452;2022-08-01T07:52:48;26.60;1.00
34572;DHT22;20808;48.974;8.452;2022-08-01T07:55:15;27.30;1.00
34572;DHT22;20808;48.974;8.452;2022-08-01T07:57:41;27.50;1.00
34572;DHT22;20808;48.974;8.452;2022-08-01T08:00:09;27.80;1.00
34572;DHT22;20808;48.974;8.452;2022-08-01T08:02:36;27.90;1.00
34572;DHT22;20808;48.974;8.452;2022-08-01T08:05:03;28.00;1.00
34572;DHT22;20808;48.974;8.452;2022-08-01T08:07:33;28.00;1.00
34572;DHT22;20808;48.974;8.452;2022-08-01T08:10:00;28.50;1.00
34572;DHT22;20808;48.974;8.452;2022-08-01T08:12:26;28.30;1.00
34572;DHT22;20808;48.974;8.452;2022-08-01T08:14:53;28.60;1.00
34572;DHT22;20808;48.974;8.452;2022-08-01T08:17:20;28.60;1.00
34572;DHT22;20808;48.974;8.452;2022-08-01T08:19:47;28.80;1.00
34572;DHT22;20808;48.974;8.452;2022-08-01T08:22:14;28.70;1.00
34572;DHT22;20808;48.974;8.452;2022-08-01T08:24:42;29.00;1.00
34572;DHT22;20808;48.974;8.452;2022-08-01T08:27:10;28.70;1.00
34572;DHT22;20808;48.974;8.452;2022-08-01T08:29:36;28.20;1.00
34572;DHT22;20808;48.974;8.452;2022-08-01T08:32:04;27.40;1.00
34572;DHT22;20808;48.974;8.452;2022-08-01T08:34:30;27.10;1.00
34572;DHT22;20808;48.974;8.452;2022-08-01T08:36:58;27.30;1.00
34572;DHT22;20808;48.974;8.452;2022-08-01T08:39:26;28.20;1.00
34572;DHT22;20808;48.974;8.452;2022-08-01T08:41:56;28.70;1.00
34572;DHT22;20808;48.974;8.452;2022-08-01T08:44:24;28.80;1.00
34572;DHT22;20808;48.974;8.452;2022-08-01T08:46:52;29.40;1.00
34572;DHT22;20808;48.974;8.452;2022-08-01T08:49:23;30.10;1.00
34572;DHT22;20808;48.974;8.452;2022-08-01T08:51:52;30.70;1.00
34572;DHT22;20808;48.974;8.452;2022-08-01T08:54:21;30.70;1.00
34572;DHT22;20808;48.974;8.452;2022-08-01T08:56:50;30.70;1.00
34572;DHT22;20808;48.974;8.452;2022-08-01T08:59:19;31.30;1.00
34572;DHT22;20808;48.974;8.452;2022-08-01T09:01:47;31.20;1.00
34572;DHT22;20808;48.974;8.452;2022-08-01T09:04:14;29.80;1.00
34572;DHT22;20808;48.974;8.452;2022-08-01T09:06:40;30.30;1.00
34572;DHT22;20808;48.974;8.452;2022-08-01T09:09:08;30.80;1.00
34572;DHT22;20808;48.974;8.452;2022-08-01T09:11:36;30.90;1.00
34572;DHT22;20808;48.974;8.452;2022-08-01T09:14:08;31.30;1.00
34572;DHT22;20808;48.974;8.452;2022-08-01T09:16:40;32.10;1.00
34572;DHT22;20808;48.974;8.452;2022-08-01T09:19:09;32.20;1.00
34572;DHT22;20808;48.974;8.452;2022-08-01T09:21:36;32.10;1.00
34572;DHT22;20808;48.974;8.452;2022-08-01T09:24:12;31.40;1.00
34572;DHT22;20808;48.974;8.452;2022-08-01T09:26:39;31.70;1.00
34572;DHT22;20808;48.974;8.452;2022-08-01T09:29:07;32.20;1.00
34572;DHT22;20808;48.974;8.452;2022-08-01T09:31:42;32.60;1.00
34572;DHT22;20808;48.974;8.452;2022-08-01T09:34:09;33.80;1.00
34572;DHT22;20808;48.974;8.452;2022-08-01T09:36:50;34.20;1.00
34572;DHT22;20808;48.974;8.452;2022-08-01T09:39:23;33.20;1.00
34572;DHT22;20808;48.974;8.452;2022-08-01T09:41:51;33.30;1.00
34572;DHT22;20808;48.974;8.452;2022-08-01T09:44:18;33.80;1.00
34572;DHT22;20808;48.974;8.452;2022-08-01T09:46:54;33.70;1.00
34572;DHT22;20808;48.974;8.452;2022-08-01T09:49:28;34.00;1.00
34572;DHT22;20808;48.974;8.452;2022-08-01T09:51:55;35.00;1.00
34572;DHT22;20808;48.974;8.452;2022-08-01T09:54:30;35.00;1.00
34572;DHT22;20808;48.974;8.452;2022-08-01T09:57:11;33.80;1.00
34572;DHT22;20808;48.974;8.452;2022-08-01T09:59:40;33.10;1.00
34572;DHT22;20808;48.974;8.452;2022-08-01T10:02:10;32.50;1.00
34572;DHT22;20808;48.974;8.452;2022-08-01T10:04:46;33.00;1.00
34572;DHT22;20808;48.974;8.452;2022-08-01T10:07:14;32.80;1.00
34572;DHT22;20808;48.974;8.452;2022-08-01T10:09:42;32.80;1.00
34572;DHT22;20808;48.974;8.452;2022-08-01T10:12:10;34.00;1.00
34572;DHT22;20808;48.974;8.452;2022-08-01T10:14:39;34.10;1.00
34572;DHT22;20808;48.974;8.452;2022-08-01T10:17:09;33.50;1.00
34572;DHT22;20808;48.974;8.452;2022-08-01T10:19:40;32.90;1.00
34572;DHT22;20808;48.974;8.452;2022-08-01T10:22:08;32.40;1.00
34572;DHT22;20808;48.974;8.452;2022-08-01T10:24:37;31.60;1.00
34572;DHT22;20808;48.974;8.452;2022-08-01T10:27:07;31.70;1.00
34572;DHT22;20808;48.974;8.452;2022-08-01T10:29:41;32.10;1.00
34572;DHT22;20808;48.974;8.452;2022-08-01T10:32:10;32.60;1.00
34572;DHT22;20808;48.974;8.452;2022-08-01T10:34:37;33.70;1.00
34572;DHT22;20808;48.974;8.452;2022-08-01T10:37:04;34.00;1.00
34572;DHT22;20808;48.974;8.452;2022-08-01T10:39:32;34.80;1.00
34572;DHT22;20808;48.974;8.452;2022-08-01T10:41:59;33.40;1.00
34572;DHT22;20808;48.974;8.452;2022-08-01T10:44:28;33.50;1.00
34572;DHT22;20808;48.974;8.452;2022-08-01T10:46:59;34.00;1.00
34572;DHT22;20808;48.974;8.452;2022-08-01T10:49:31;33.90;1.00
34572;DHT22;20808;48.974;8.452;2022-08-01T10:52:01;33.30;1.00
34572;DHT22;20808;48.974;8.452;2022-08-01T10:54:28;33.10;1.00
34572;DHT22;20808;48.974;8.452;2022-08-01T10:56:55;32.80;1.00
34572;DHT22;20808;48.974;8.452;2022-08-01T10:59:27;32.00;1.00
34572;DHT22;20808;48.974;8.452;2022-08-01T11:01:58;31.40;1.00
34572;DHT22;20808;48.974;8.452;2022-08-01T11:04:48;32.50;1.00
34572;DHT22;20808;48.974;8.452;2022-08-01T11:07:18;32.90;1.00
34572;DHT22;20808;48.974;8.452;2022-08-01T11:09:48;33.30;1.00
34572;DHT22;20808;48.974;8.452;2022-08-01T11:12:38;33.70;1.00
34572;DHT22;20808;48.974;8.452;2022-08-01T11:15:23;33.80;1.00
34572;DHT22;20808;48.974;8.452;2022-08-01T11:17:54;33.60;1.00
34572;DHT22;20808;48.974;8.452;2022-08-01T11:20:23;34.70;1.00
34572;DHT22;20808;48.974;8.452;2022-08-01T11:23:24;34.90;1.00
34572;DHT22;20808;48.974;8.452;2022-08-01T11:26:11;36.10;1.00
34572;DHT22;20808;48.974;8.452;2022-08-01T11:28:39;36.20;1.00
34572;DHT22;20808;48.974;8.452;2022-08-01T11:31:27;36.00;1.00
34572;DHT22;20808;48.974;8.452;2022-08-01T11:33:54;37.50;1.00
34572;DHT22;20808;48.974;8.452;2022-08-01T11:36:23;37.30;1.00
34572;DHT22;20808;48.974;8.452;2022-08-01T11:39:11;36.50;1.00
34572;DHT22;20808;48.974;8.452;2022-08-01T11:41:38;34.20;1.00
34572;DHT22;20808;48.974;8.452;2022-08-01T11:44:07;33.30;1.00
34572;DHT22;20808;48.974;8.452;2022-08-01T11:47:02;34.00;1.00
34572;DHT22;20808;48.974;8.452;2022-08-01T11:49:47;35.10;1.00
34572;DHT22;20808;48.974;8.452;2022-08-01T11:52:23;36.70;1.00
34572;DHT22;20808;48.974;8.452;2022-08-01T11:54:52;36.10;1.00
34572;DHT22;20808;48.974;8.452;2022-08-01T11:57:21;35.20;1.00
34572;DHT22;20808;48.974;8.452;2022-08-01T11:59:50;35.80;1.00
34572;DHT22;20808;48.974;8.452;2022-08-01T12:02:21;35.70;1.00
34572;DHT22;20808;48.974;8.452;2022-08-01T12:04:51;37.00;1.00
34572;DHT22;20808;48.974;8.452;2022-08-01T12:07:20;37.40;1.00
34572;DHT22;20808;48.974;8.452;2022-08-01T12:09:47;38.20;1.00
34572;DHT22;20808;48.974;8.452;2022-08-01T12:12:16;37.60;1.00
34572;DHT22;20808;48.974;8.452;2022-08-01T12:14:45;36.60;1.00
34572;DHT22;20808;48.974;8.452;2022-08-01T12:17:12;36.60;1.00
34572;DHT22;20808;48.974;8.452;2022-08-01T12:19:40;36.90;1.00
34572;DHT22;20808;48.974;8.452;2022-08-01T12:22:12;36.30;1.00
34572;DHT22;20808;48.974;8.452;2022-08-01T12:24:42;36.90;1.00
34572;DHT22;20808;48.974;8.452;2022-08-01T12:27:09;37.50;1.00
34572;DHT22;20808;48.974;8.452;2022-08-01T12:29:38;38.50;1.00
34572;DHT22;20808;48.974;8.452;2022-08-01T12:32:22;37.80;1.00
34572;DHT22;20808;48.974;8.452;2022-08-01T12:34:50;38.30;1.00
34572;DHT22;20808;48.974;8.452;2022-08-01T12:37:17;37.90;1.00
34572;DHT22;20808;48.974;8.452;2022-08-01T12:39:46;38.30;1.00
34572;DHT22;20808;48.974;8.452;2022-08-01T12:42:13;38.40;1.00
34572;DHT22;20808;48.974;8.452;2022-08-01T12:44:42;37.50;1.00
34572;DHT22;20808;48.974;8.452;2022-08-01T12:47:11;37.00;1.00
34572;DHT22;20808;48.974;8.452;2022-08-01T12:49:39;36.70;1.00
34572;DHT22;20808;48.974;8.452;2022-08-01T12:52:10;36.40;1.00
34572;DHT22;20808;48.974;8.452;2022-08-01T12:55:14;35.80;1.00
34572;DHT22;20808;48.974;8.452;2022-08-01T12:57:44;36.40;1.00
34572;DHT22;20808;48.974;8.452;2022-08-01T13:00:21;38.20;1.00
34572;DHT22;20808;48.974;8.452;2022-08-01T13:02:50;39.10;1.00
34572;DHT22;20808;48.974;8.452;2022-08-01T13:05:25;39.30;1.00
34572;DHT22;20808;48.974;8.452;2022-08-01T13:07:53;39.00;1.00
34572;DHT22;20808;48.974;8.452;2022-08-01T13:10:30;38.00;1.00
34572;DHT22;20808;48.974;8.452;2022-08-01T13:12:58;37.70;1.00
34572;DHT22;20808;48.974;8.452;2022-08-01T13:15:28;38.20;1.00
34572;DHT22;20808;48.974;8.452;2022-08-01T13:17:56;38.20;1.00
34572;DHT22;20808;48.974;8.452;2022-08-01T13:20:29;36.30;1.00
34572;DHT22;20808;48.974;8.452;2022-08-01T13:23:10;35.60;1.00
34572;DHT22;20808;48.974;8.452;2022-08-01T13:25:48;35.50;1.00
34572;DHT22;20808;48.974;8.452;2022-08-01T13:28:16;35.30;1.00
34572;DHT22;20808;48.974;8.452;2022-08-01T13:30:54;35.20;1.00
34572;DHT22;20808;48.974;8.452;2022-08-01T13:33:22;34.60;1.00
34572;DHT22;20808;48.974;8.452;2022-08-01T13:35:50;34.30;1.00
34572;DHT22;20808;48.974;8.452;2022-08-01T13:38:18;34.20;1.00
34572;DHT22;20808;48.974;8.452;2022-08-01T13:40:45;34.10;1.00
34572;DHT22;20808;48.974;8.452;2022-08-01T13:43:13;33.40;1.00
34572;DHT22;20808;48.974;8.452;2022-08-01T13:45:40;32.90;1.00
34572;DHT22;20808;48.974;8.452;2022-08-01T13:48:07;32.90;1.00
34572;DHT22;20808;48.974;8.452;2022-08-01T13:50:34;33.00;1.00
34572;DHT22;20808;48.974;8.452;2022-08-01T13:53:01;33.00;1.00
34572;DHT22;20808;48.974;8.452;2022-08-01T13:55:28;33.00;1.00
34572;DHT22;20808;48.974;8.452;2022-08-01T13:57:55;33.20;1.00
34572;DHT22;20808;48.974;8.452;2022-08-01T14:00:23;33.70;1.00
34572;DHT22;20808;48.974;8.452;2022-08-01T14:02:50;33.80;1.00
34572;DHT22;20808;48.974;8.452;2022-08-01T14:05:16;34.20;1.00
34572;DHT22;20808;48.974;8.452;2022-08-01T14:07:43;34.40;1.00
34572;DHT22;20808;48.974;8.452;2022-08-01T14:10:11;34.00;1.00
34572;DHT22;20808;48.974;8.452;2022-08-01T14:12:37;33.40;1.00
34572;DHT22;20808;48.974;8.452;2022-08-01T14:15:05;33.40;1.00
34572;DHT22;20808;48.974;8.452;2022-08-01T14:17:34;33.20;1.00
34572;DHT22;20808;48.974;8.452;2022-08-01T14:20:01;33.10;1.00
34572;DHT22;20808;48.974;8.452;2022-08-01T14:22:28;33.60;1.00
34572;DHT22;20808;48.974;8.452;2022-08-01T14:24:55;34.20;1.00
34572;DHT22;20808;48.974;8.452;2022-08-01T14:27:21;35.30;1.00
34572;DHT22;20808;48.974;8.452;2022-08-01T14:29:48;36.70;1.00
34572;DHT22;20808;48.974;8.452;2022-08-01T14:32:15;37.10;1.00
34572;DHT22;20808;48.974;8.452;2022-08-01T14:34:43;36.90;1.00
34572;DHT22;20808;48.974;8.452;2022-08-01T14:37:10;37.40;1.00
34572;DHT22;20808;48.974;8.452;2022-08-01T14:39:37;38.20;1.00
34572;DHT22;20808;48.974;8.452;2022-08-01T14:42:04;37.90;1.00
34572;DHT22;20808;48.974;8.452;2022-08-01T14:44:31;36.80;1.00
34572;DHT22;20808;48.974;8.452;2022-08-01T14:46:58;35.20;1.00
34572;DHT22;20808;48.974;8.452;2022-08-01T14:49:25;34.70;1.00
34572;DHT22;20808;48.974;8.452;2022-08-01T14:51:53;34.10;1.00
34572;DHT22;20808;48.974;8.452;2022-08-01T14:54:20;33.90;1.00
34572;DHT22;20808;48.974;8.452;2022-08-01T14:56:47;33.90;1.00
34572;DHT22;20808;48.974;8.452;2022-08-01T14:59:13;33.50;1.00
34572;DHT22;20808;48.974;8.452;2022-08-01T15:01:40;33.30;1.00
34572;DHT22;20808;48.974;8.452;2022-08-01T15:04:07;32.80;1.00
34572;DHT22;20808;48.974;8.452;2022-08-01T15:06:34;32.30;1.00
34572;DHT22;20808;48.974;8.452;2022-08-01T15:09:03;31.90;1.00
34572;DHT22;20808;48.974;8.452;2022-08-01T15:11:30;31.50;1.00
34572;DHT22;20808;48.974;8.452;2022-08-01T15:13:57;31.30;1.00
34572;DHT22;20808;48.974;8.452;2022-08-01T15:16:41;31.20;1.00
34572;DHT22;20808;48.974;8.452;2022-08-01T15:19:08;31.40;1.00
34572;DHT22;20808;48.974;8.452;2022-08-01T15:21:35;31.70;1.00
34572;DHT22;20808;48.974;8.452;2022-08-01T15:24:03;31.80;1.00
34572;DHT22;20808;48.974;8.452;2022-08-01T15:26:30;31.70;1.00
34572;DHT22;20808;48.974;8.452;2022-08-01T15:28:57;31.30;1.00
34572;DHT22;20808;48.974;8.452;2022-08-01T15:31:24;31.40;1.00
34572;DHT22;20808;48.974;8.452;2022-08-01T15:33:50;31.30;1.00
34572;DHT22;20808;48.974;8.452;2022-08-01T15:36:17;31.30;1.00
34572;DHT22;20808;48.974;8.452;2022-08-01T15:38:44;31.40;1.00
34572;DHT22;20808;48.974;8.452;2022-08-01T15:41:12;32.00;1.00
34572;DHT22;20808;48.974;8.452;2022-08-01T15:43:39;32.40;1.00
34572;DHT22;20808;48.974;8.452;2022-08-01T15:46:06;32.80;1.00
34572;DHT22;20808;48.974;8.452;2022-08-01T15:48:33;33.60;1.00
34572;DHT22;20808;48.974;8.452;2022-08-01T15:50:59;34.10;1.00
34572;DHT22;20808;48.974;8.452;2022-08-01T15:53:26;34.10;1.00
34572;DHT22;20808;48.974;8.452;2022-08-01T15:55:53;33.80;1.00
34572;DHT22;20808;48.974;8.452;2022-08-01T15:58:21;33.10;1.00